Jump to content


SKYWEST AIRLINES FLIGHT OO1535 FLOWN ON 02-01-2018 BY CAPTAIN JIM BOERMAN

Pilot StatsCaptain Jim Boerman (LDP136) • 4,917.8 total hours • 1,480 total flights [View Logbook]
FLIGHT DETAILS
StatusReceived and approved on 2018-02-01 at 11:02:03
Origin AirportCincinnati-Northern Ky Intl (KCVG) • Cincinnati, Ohio, United States (896 feet MSL)
Filed Flight PlanFLIGHT PLANNER OFFLINE
Destination AirportLouisville Intl-Standiford (KSDF) • Louisville, Kentucky, United States (501 feet MSL)
Alternate AirportCincinnati-Northern Ky Intl (KCVG) • Cincinnati, Ohio, United States (896 feet MSL)
AirlineSkywest Airlines
AircraftBombardier CRJ-700 (CR7 / CRJ-700)
FS Aircraft UsedCRJ700ER Delta Airways N367CA
Cruising AltitudeFL360
Distance Flown72 nautical miles
Passengers Onboard24 passengers (34.29% full)
DEPARTURE DETAILS
Time Out09:52:46
Taxi Data64,375 lbs total with 5,837 lbs of fuel onboard
Takeoff Data10:02:58 (10 minutes after leaving gate/ramp) • 64,067 lbs total • 7° pitch at 151 knots
Departure METARKCVG 011352Z 23008KT 10SM OVC075 07/M01 A2991 RMK AO2 SLP130 T00721011
ARRIVAL DETAILS
Landing Data10:40:53 • 61,831 lbs total • 0° pitch doing 121 knots at a rate of -239.14 feet/minute with 2,959 lbs of fuel onboard
Time In10:50:48 (10 minutes after landing)
Ramp Weight61,497 lbs total
Total Fuel Used2,878 lbs
Total Block Time00:57:45 (1 hour) while 20 minutes were spent on the ground
Arrival METARKSDF 011556Z 29009KT 10SM -RA BKN080 BKN130 OVC200 09/01 A3001 RMK AO2 RAB54 SLP162 P0000 T00890006
MISCELLANEOUS DETAILS
LiveDISPATCH Version4.8.3.1
FS Version
FSUIPC Version5.12
OS VersionWindows 7 32-bit
Screen Resolution1920 x 1080
Pilot's Commentswake turbulance on final
FLIGHT MAP